Time;durP1;ratioP1;P1;durP2;ratioP2;P2;SDS_P1;SDS_P2;PMS_P1;PMS_P2;Temp;Humidity;BMP_temperature;BMP_pressure;BME280_temperature;BME280_humidity;BME280_pressure;Samples;Min_cycle;Max_cycle;Signal;HPM_P1;HPM_P2
2023/10/23 00:02:24;;;;;;;12.13;7.65;;;;;;;-143.90;100.00;65065.84;6213191;23;20009;-78
2023/10/23 00:04:50;;;;;;;12.55;8.52;;;;;;;-143.90;100.00;65065.84;6213349;23;20039;-78
2023/10/23 00:07:16;;;;;;;14.38;8.07;;;;;;;-143.90;100.00;65065.84;6186639;23;20015;-79
2023/10/23 00:09:42;;;;;;;13.60;8.68;;;;;;;-143.90;100.00;65065.84;6213247;23;20012;-79
2023/10/23 00:12:08;;;;;;;15.52;8.27;;;;;;;-143.90;100.00;65065.84;6186336;23;20323;-78
2023/10/23 00:14:34;;;;;;;11.63;7.90;;;;;;;-143.90;100.00;65065.84;6213100;23;20011;-79
2023/10/23 00:16:59;;;;;;;13.63;8.85;;;;;;;-143.90;100.00;65065.84;6186827;23;20009;-78
2023/10/23 00:19:24;;;;;;;15.05;8.50;;;;;;;-143.90;100.00;65065.84;6214432;23;20381;-78
2023/10/23 00:21:50;;;;;;;14.50;9.73;;;;;;;-143.90;100.00;65065.84;6214634;23;20000;-78
2023/10/23 00:24:15;;;;;;;15.70;9.50;;;;;;;-143.90;100.00;65065.84;6188050;23;20004;-78
2023/10/23 00:26:40;;;;;;;18.98;9.82;;;;;;;-143.90;100.00;65065.84;6214445;23;20030;-79
2023/10/23 00:29:06;;;;;;;13.77;8.63;;;;;;;-143.90;100.00;65065.84;6214533;23;20506;-78
2023/10/23 00:31:31;;;;;;;15.23;9.43;;;;;;;-143.90;100.00;65065.84;6214446;23;20435;-78
2023/10/23 00:33:57;;;;;;;13.00;8.77;;;;;;;-143.90;100.00;65065.84;6187880;23;20005;-78
2023/10/23 00:36:22;;;;;;;14.07;8.95;;;;;;;-143.90;100.00;65065.84;6214477;23;20008;-78
2023/10/23 00:38:47;;;;;;;13.13;8.70;;;;;;;-143.90;100.00;65065.84;6214345;23;20433;-78
2023/10/23 00:41:12;;;;;;;14.80;8.32;;;;;;;-143.90;100.00;65065.84;6214384;23;20009;-79
2023/10/23 00:43:38;;;;;;;12.63;8.13;;;;;;;-143.90;100.00;65065.84;6214442;23;20000;-80
2023/10/23 00:46:12;;;;;;;15.32;8.50;;;;;;;-143.90;100.00;65065.84;6214429;23;20437;-79
2023/10/23 00:48:37;;;;;;;16.95;9.15;;;;;;;-143.90;100.00;65065.84;6214511;23;20009;-79
2023/10/23 00:51:03;;;;;;;14.18;8.32;;;;;;;-143.90;100.00;65065.84;6212788;23;20341;-79
2023/10/23 00:53:35;;;;;;;13.05;8.68;;;;;;;-143.90;100.00;65065.84;6214448;23;20004;-79
2023/10/23 00:56:04;;;;;;;16.48;8.52;;;;;;;-143.90;100.00;65065.84;6212922;23;20040;-79
2023/10/23 00:58:32;;;;;;;17.40;9.18;;;;;;;-143.90;100.00;65065.84;6214360;23;20070;-79
2023/10/23 01:00:58;;;;;;;16.48;8.38;;;;;;;-143.90;100.00;65065.84;6214320;23;20008;-79
2023/10/23 01:03:25;;;;;;;18.58;9.68;;;;;;;-143.90;100.00;65065.84;6214497;23;20410;-79
2023/10/23 01:05:50;;;;;;;18.55;10.95;;;;;;;-143.90;100.00;65065.84;6214391;23;20004;-78
2023/10/23 01:08:16;;;;;;;17.17;10.13;;;;;;;-143.90;100.00;65065.84;6214321;23;20000;-77
2023/10/23 01:10:41;;;;;;;13.73;9.18;;;;;;;-143.90;100.00;65065.84;6214173;23;20028;-78
2023/10/23 01:13:07;;;;;;;22.77;10.18;;;;;;;-143.90;100.00;65065.84;6187782;23;20004;-78
2023/10/23 01:15:33;;;;;;;15.57;8.85;;;;;;;-143.90;100.00;65065.84;6187586;23;20385;-78
2023/10/23 01:17:59;;;;;;;15.23;9.10;;;;;;;-143.90;100.00;65065.84;6214124;23;20015;-78
2023/10/23 01:20:26;;;;;;;24.52;10.15;;;;;;;-143.90;100.00;65065.84;6187749;23;20441;-78
2023/10/23 01:22:56;;;;;;;21.13;10.40;;;;;;;-143.90;100.00;65065.84;6187535;23;20048;-78
2023/10/23 01:25:21;;;;;;;18.48;9.88;;;;;;;-143.90;100.00;65065.84;6214255;23;20445;-78
2023/10/23 01:27:47;;;;;;;23.85;10.27;;;;;;;-143.90;100.00;65065.84;6214196;23;20135;-77
2023/10/23 01:30:12;;;;;;;17.42;10.55;;;;;;;-143.90;100.00;65065.84;6213494;23;20426;-77
2023/10/23 01:32:37;;;;;;;17.17;9.70;;;;;;;-143.90;100.00;65065.84;6214153;23;20004;-77
2023/10/23 01:35:03;;;;;;;19.30;10.63;;;;;;;-143.90;100.00;65065.84;6214289;23;20009;-76
2023/10/23 01:37:28;;;;;;;18.30;10.13;;;;;;;-143.90;100.00;65065.84;6214137;23;20365;-76
2023/10/23 01:39:54;;;;;;;20.17;10.77;;;;;;;-143.90;100.00;65065.84;6214131;23;20430;-76
2023/10/23 01:42:19;;;;;;;21.95;10.30;;;;;;;-143.90;100.00;65065.84;6214143;23;20380;-77
2023/10/23 01:44:44;;;;;;;22.27;10.85;;;;;;;-143.90;100.00;65065.84;6214145;23;20004;-77
2023/10/23 01:47:10;;;;;;;18.13;10.32;;;;;;;-143.90;100.00;65065.84;6214110;23;20008;-76
2023/10/23 01:49:35;;;;;;;17.38;9.02;;;;;;;-143.90;100.00;65065.84;6214008;23;20043;-77
2023/10/23 01:52:00;;;;;;;17.83;9.70;;;;;;;-143.90;100.00;65065.84;6213958;23;20044;-76
2023/10/23 01:54:26;;;;;;;19.17;9.43;;;;;;;-143.90;100.00;65065.84;6213953;23;20421;-76
2023/10/23 01:56:51;;;;;;;17.83;9.82;;;;;;;-143.90;100.00;65065.84;6212565;23;20004;-77
2023/10/23 01:59:17;;;;;;;15.13;8.88;;;;;;;-143.90;100.00;65065.84;6212541;23;20013;-77
2023/10/23 02:01:42;;;;;;;22.25;10.82;;;;;;;-143.90;100.00;65065.84;6187524;23;20015;-77
2023/10/23 02:04:07;;;;;;;19.23;10.52;;;;;;;-143.90;100.00;65065.84;6187448;23;20015;-77
2023/10/23 02:06:33;;;;;;;14.38;9.95;;;;;;;-143.90;100.00;65065.84;6213984;23;20012;-77
2023/10/23 02:08:59;;;;;;;17.80;9.45;;;;;;;-143.90;100.00;65065.84;6213993;23;20009;-77
2023/10/23 02:11:25;;;;;;;17.50;9.70;;;;;;;-143.90;100.00;65065.84;6187529;23;20001;-76
2023/10/23 02:13:50;;;;;;;20.65;10.13;;;;;;;-143.90;100.00;65065.84;6214023;23;20016;-76
2023/10/23 02:16:15;;;;;;;17.83;8.68;;;;;;;-143.90;100.00;65065.84;6213973;23;20011;-76
2023/10/23 02:18:41;;;;;;;19.70;9.68;;;;;;;-143.90;100.00;65065.84;6213856;23;20383;-76
2023/10/23 02:21:06;;;;;;;20.83;10.27;;;;;;;-143.90;100.00;65065.84;6213998;23;20008;-78
2023/10/23 02:23:32;;;;;;;16.83;9.18;;;;;;;-143.90;100.00;65065.84;6213886;23;20083;-77
2023/10/23 02:25:57;;;;;;;17.63;9.93;;;;;;;-143.90;100.00;65065.84;6214042;23;20011;-77
2023/10/23 02:28:23;;;;;;;21.67;10.05;;;;;;;-143.90;100.00;65065.84;6213927;23;20001;-78
2023/10/23 02:30:48;;;;;;;15.88;9.18;;;;;;;-143.90;100.00;65065.84;6187314;23;20080;-78
2023/10/23 02:33:13;;;;;;;20.67;9.88;;;;;;;-143.90;100.00;65065.84;6213966;23;20004;-77
2023/10/23 02:35:38;;;;;;;20.90;10.07;;;;;;;-143.90;100.00;65065.84;6214045;23;20008;-77
2023/10/23 02:38:04;;;;;;;19.35;10.45;;;;;;;-143.90;100.00;65065.84;6213966;23;20031;-77
2023/10/23 02:40:30;;;;;;;18.02;9.57;;;;;;;-143.90;100.00;65065.84;6186938;23;20434;-77
2023/10/23 02:42:55;;;;;;;22.05;9.68;;;;;;;-143.90;100.00;65065.84;6212272;23;20013;-77
2023/10/23 02:45:20;;;;;;;20.30;9.68;;;;;;;-143.90;100.00;65065.84;6187327;23;20020;-77
2023/10/23 02:47:46;;;;;;;20.58;10.05;;;;;;;-143.90;100.00;65065.84;6213819;23;20004;-77
2023/10/23 02:50:11;;;;;;;18.30;9.57;;;;;;;-143.90;100.00;65065.84;6214175;23;20365;-78
2023/10/23 02:52:36;;;;;;;18.17;9.27;;;;;;;-143.90;100.00;65065.84;6187201;23;20016;-77
2023/10/23 02:55:02;;;;;;;20.15;9.95;;;;;;;-143.90;100.00;65065.84;6213753;23;20012;-77
2023/10/23 02:57:27;;;;;;;26.50;11.15;;;;;;;-143.90;100.00;65065.84;6213758;23;20333;-77
2023/10/23 02:59:52;;;;;;;23.00;10.88;;;;;;;-143.90;100.00;65065.84;6212236;23;20076;-77
2023/10/23 03:02:18;;;;;;;22.58;10.70;;;;;;;-143.90;100.00;65065.84;6187181;23;20039;-76
2023/10/23 03:04:44;;;;;;;28.80;10.98;;;;;;;-143.90;100.00;65065.84;6213940;23;20000;-78
2023/10/23 03:07:09;;;;;;;21.95;10.05;;;;;;;-143.90;100.00;65065.84;6213744;23;20005;-78
2023/10/23 03:09:35;;;;;;;17.58;10.73;;;;;;;-143.90;100.00;65065.84;6186999;23;20005;-78
2023/10/23 03:12:00;;;;;;;23.75;9.88;;;;;;;-143.90;100.00;65065.84;6212165;23;20413;-78
2023/10/23 03:14:26;;;;;;;20.60;9.88;;;;;;;-143.90;100.00;65065.84;6212117;23;20311;-78
2023/10/23 03:16:51;;;;;;;24.42;9.75;;;;;;;-143.90;100.00;65065.84;6213736;23;20020;-78
2023/10/23 03:19:16;;;;;;;21.48;9.85;;;;;;;-143.90;100.00;65065.84;6213512;23;20001;-78
2023/10/23 03:21:41;;;;;;;18.42;9.38;;;;;;;-143.90;100.00;65065.84;6187069;23;20052;-78
2023/10/23 03:24:07;;;;;;;20.38;9.90;;;;;;;-143.90;100.00;65065.84;6213607;23;20009;-78
2023/10/23 03:26:33;;;;;;;19.65;10.35;;;;;;;-143.90;100.00;65065.84;6212137;23;20013;-78
2023/10/23 03:28:58;;;;;;;31.05;8.68;;;;;;;-143.90;100.00;65065.84;6213559;23;20009;-78
2023/10/23 03:31:24;;;;;;;24.75;9.32;;;;;;;-143.90;100.00;65065.84;6213495;23;20009;-78
2023/10/23 03:33:49;;;;;;;48.78;9.40;;;;;;;-143.90;100.00;65065.84;6213493;23;20009;-77
2023/10/23 03:36:15;;;;;;;53.15;9.18;;;;;;;-143.90;100.00;65065.84;6213581;23;20011;-77
2023/10/23 03:38:41;;;;;;;80.93;10.18;;;;;;;-143.90;100.00;65065.84;6213566;23;20012;-77
2023/10/23 03:41:06;;;;;;;186.13;14.02;;;;;;;-143.90;100.00;65065.84;6213406;23;20017;-77
2023/10/23 03:43:32;;;;;;;124.53;10.75;;;;;;;-143.90;100.00;65065.84;6213402;23;20096;-77
2023/10/23 03:46:02;;;;;;;154.02;11.38;;;;;;;-143.90;100.00;65065.84;6186793;23;20044;-76
2023/10/23 03:48:27;;;;;;;97.75;9.55;;;;;;;-143.90;100.00;65065.84;6213376;23;20009;-77
2023/10/23 03:50:53;;;;;;;54.60;8.05;;;;;;;-143.90;100.00;65065.84;6186615;23;20005;-77
2023/10/23 03:53:18;;;;;;;108.90;9.48;;;;;;;-143.90;100.00;65065.84;6212628;23;20047;-77
2023/10/23 03:55:43;;;;;;;114.45;10.15;;;;;;;-143.90;100.00;65065.84;6214617;23;20007;-77
2023/10/23 03:58:08;;;;;;;223.45;15.30;;;;;;;-143.90;100.00;65065.84;6214647;23;20009;-77
2023/10/23 04:00:34;;;;;;;110.82;10.48;;;;;;;-143.90;100.00;65065.84;6213012;23;20043;-77
2023/10/23 04:02:59;;;;;;;85.00;11.23;;;;;;;-143.90;100.00;65065.84;6187898;23;20047;-77
2023/10/23 04:05:24;;;;;;;27.65;8.77;;;;;;;-143.90;100.00;65065.84;6214567;23;20001;-77
2023/10/23 04:07:49;;;;;;;58.40;9.45;;;;;;;-143.90;100.00;65065.84;6212898;23;20009;-76
2023/10/23 04:10:15;;;;;;;14.53;7.40;;;;;;;-143.90;100.00;65065.84;6187857;23;20000;-77
2023/10/23 04:12:40;;;;;;;12.90;7.00;;;;;;;-143.90;100.00;65065.84;6214476;23;20338;-78
2023/10/23 04:15:06;;;;;;;39.97;8.52;;;;;;;-143.90;100.00;65065.84;6212976;23;20008;-77
2023/10/23 04:17:31;;;;;;;11.98;7.18;;;;;;;-143.90;100.00;65065.84;6213024;23;20005;-76
2023/10/23 04:19:57;;;;;;;26.40;7.25;;;;;;;-143.90;100.00;65065.84;6214389;23;20008;-76
2023/10/23 04:22:22;;;;;;;22.23;6.72;;;;;;;-143.90;100.00;65065.84;6187688;23;20013;-77
2023/10/23 04:24:48;;;;;;;46.85;7.63;;;;;;;-143.90;100.00;65065.84;6212985;23;20349;-77
2023/10/23 04:27:14;;;;;;;52.67;6.78;;;;;;;-143.90;100.00;65065.84;6214546;23;20333;-77
2023/10/23 04:29:39;;;;;;;127.57;9.93;;;;;;;-143.90;100.00;65065.84;6214571;23;20004;-77
2023/10/23 04:32:04;;;;;;;97.35;9.52;;;;;;;-143.90;100.00;65065.84;6187827;23;20016;-76
2023/10/23 04:34:29;;;;;;;61.25;6.85;;;;;;;-143.90;100.00;65065.84;6187765;23;20361;-77
2023/10/23 04:36:55;;;;;;;39.90;6.25;;;;;;;-143.90;100.00;65065.84;6214395;23;20440;-77
2023/10/23 04:39:20;;;;;;;61.90;8.95;;;;;;;-143.90;100.00;65065.84;6214423;23;20000;-78
2023/10/23 04:41:45;;;;;;;86.68;9.30;;;;;;;-143.90;100.00;65065.84;6214502;23;20019;-78
2023/10/23 04:44:11;;;;;;;63.22;7.22;;;;;;;-143.90;100.00;65065.84;6214441;23;20031;-78
2023/10/23 04:46:36;;;;;;;35.53;5.57;;;;;;;-143.90;100.00;65065.84;6214401;23;20004;-77
2023/10/23 04:49:01;;;;;;;57.65;7.35;;;;;;;-143.90;100.00;65065.84;6212765;23;20099;-77
2023/10/23 04:51:26;;;;;;;52.28;7.35;;;;;;;-143.90;100.00;65065.84;6212733;23;20016;-78
2023/10/23 04:53:52;;;;;;;43.40;6.50;;;;;;;-143.90;100.00;65065.84;6214316;23;20009;-77
2023/10/23 04:56:17;;;;;;;45.00;5.95;;;;;;;-143.90;100.00;65065.84;6214382;23;20015;-76
2023/10/23 04:58:43;;;;;;;26.25;5.68;;;;;;;-143.90;100.00;65065.84;6214322;23;20005;-78
2023/10/23 05:01:18;;;;;;;32.45;5.47;;;;;;;-143.90;100.00;65065.84;6212812;23;20008;-78
2023/10/23 05:03:43;;;;;;;33.22;6.28;;;;;;;-143.90;100.00;65065.84;6214310;23;20009;-78
2023/10/23 05:06:08;;;;;;;36.75;6.70;;;;;;;-143.90;100.00;65065.84;6212742;23;20004;-77
2023/10/23 05:08:34;;;;;;;15.63;4.70;;;;;;;-143.90;100.00;65065.84;6187729;23;20316;-78
2023/10/23 05:11:09;;;;;;;43.92;6.60;;;;;;;-143.90;100.00;65065.84;6214254;23;20005;-78
2023/10/23 05:13:34;;;;;;;34.40;6.30;;;;;;;-143.90;100.00;65065.84;6214353;23;20016;-78
2023/10/23 05:16:04;;;;;;;56.95;7.88;;;;;;;-143.90;100.00;65065.84;6214329;23;20001;-79
2023/10/23 05:18:34;;;;;;;40.35;6.43;;;;;;;-143.90;100.00;65065.84;6214191;23;20004;-78
2023/10/23 05:21:12;;;;;;;35.03;5.88;;;;;;;-143.90;100.00;65065.84;6214206;23;20004;-79
2023/10/23 05:23:39;;;;;;;32.25;5.38;;;;;;;-143.90;100.00;65065.84;6214556;23;20058;-78
2023/10/23 05:26:04;;;;;;;18.90;4.90;;;;;;;-143.90;100.00;65065.84;6214259;23;20072;-78
2023/10/23 05:28:29;;;;;;;23.67;5.75;;;;;;;-143.90;100.00;65065.84;6187480;23;20438;-78
2023/10/23 05:30:55;;;;;;;18.92;4.72;;;;;;;-143.90;100.00;65065.84;6214270;23;20012;-77
2023/10/23 05:33:20;;;;;;;16.67;4.82;;;;;;;-143.90;100.00;65065.84;6214258;23;20042;-78
2023/10/23 05:35:46;;;;;;;16.92;5.07;;;;;;;-143.90;100.00;65065.84;6212659;23;20334;-78
2023/10/23 05:38:11;;;;;;;37.22;5.93;;;;;;;-143.90;100.00;65065.84;6187559;23;20016;-79
2023/10/23 05:40:37;;;;;;;50.72;6.22;;;;;;;-143.90;100.00;65065.84;6212560;23;20004;-77
2023/10/23 05:43:02;;;;;;;19.88;5.65;;;;;;;-143.90;100.00;65065.84;6214086;23;20067;-78
2023/10/23 05:45:27;;;;;;;34.78;6.97;;;;;;;-143.90;100.00;65065.84;6214187;23;20040;-78
2023/10/23 05:47:53;;;;;;;35.67;6.15;;;;;;;-143.90;100.00;65065.84;6212412;23;20337;-78
2023/10/23 05:50:18;;;;;;;22.40;5.20;;;;;;;-143.90;100.00;65065.84;6214016;23;20373;-78
2023/10/23 05:52:43;;;;;;;13.80;4.50;;;;;;;-143.90;100.00;65065.84;6187374;23;20099;-79
2023/10/23 05:55:09;;;;;;;36.97;6.68;;;;;;;-143.90;100.00;65065.84;6214054;23;20631;-79
2023/10/23 05:57:34;;;;;;;28.95;5.90;;;;;;;-143.90;100.00;65065.84;6212580;23;20024;-79
2023/10/23 06:00:00;;;;;;;17.70;5.25;;;;;;;-143.90;100.00;65065.84;6214146;23;20012;-78
2023/10/23 06:02:26;;;;;;;17.52;5.68;;;;;;;-143.90;100.00;65065.84;6214113;23;20012;-78
2023/10/23 06:04:52;;;;;;;17.05;5.57;;;;;;;-143.90;100.00;65065.84;6214013;23;20005;-78
2023/10/23 06:07:17;;;;;;;18.15;6.07;;;;;;;-143.90;100.00;65065.84;6213857;23;19996;-77
2023/10/23 06:09:42;;;;;;;17.63;5.50;;;;;;;-143.90;100.00;65065.84;6187437;23;20012;-78
2023/10/23 06:12:11;;;;;;;46.58;6.63;;;;;;;-143.90;100.00;65065.84;6213856;23;20004;-78
2023/10/23 06:14:37;;;;;;;13.60;5.32;;;;;;;-143.90;100.00;65065.84;6211918;23;20046;-78
2023/10/23 06:17:02;;;;;;;15.93;5.18;;;;;;;-143.90;100.00;65065.84;6213773;23;20005;-78
2023/10/23 06:19:31;;;;;;;14.85;4.95;;;;;;;-143.90;100.00;65065.84;6213877;23;20005;-80
2023/10/23 06:21:59;;;;;;;19.00;5.60;;;;;;;-143.90;100.00;65065.84;6213830;23;20009;-78
2023/10/23 06:24:27;;;;;;;23.95;5.50;;;;;;;-143.90;100.00;65065.84;6212597;23;20448;-79
2023/10/23 06:26:52;;;;;;;20.02;5.60;;;;;;;-143.90;100.00;65065.84;6213967;23;20452;-79
2023/10/23 06:29:17;;;;;;;23.05;4.63;;;;;;;-143.90;100.00;65065.84;6212401;23;19996;-78
2023/10/23 06:31:42;;;;;;;17.90;5.38;;;;;;;-143.90;100.00;65065.84;6187335;23;20013;-79
2023/10/23 06:34:08;;;;;;;19.27;5.18;;;;;;;-143.90;100.00;65065.84;6213817;23;20005;-80
2023/10/23 06:36:33;;;;;;;19.52;5.35;;;;;;;-143.90;100.00;65065.84;6187375;23;20055;-80
2023/10/23 06:38:59;;;;;;;20.83;5.90;;;;;;;-143.90;100.00;65065.84;6213828;23;20001;-78
2023/10/23 06:41:24;;;;;;;17.05;4.57;;;;;;;-143.90;100.00;65065.84;6213913;23;20016;-79
2023/10/23 06:43:50;;;;;;;21.60;5.38;;;;;;;-143.90;100.00;65065.84;6213976;23;20004;-77
2023/10/23 06:46:15;;;;;;;9.80;4.68;;;;;;;-143.90;100.00;65065.84;6212314;23;20062;-77
2023/10/23 06:48:44;;;;;;;18.10;5.13;;;;;;;-143.90;100.00;65065.84;6212307;23;20119;-77
2023/10/23 06:51:10;;;;;;;26.73;5.57;;;;;;;-143.90;100.00;65065.84;6212230;23;20012;-78
2023/10/23 06:53:35;;;;;;;17.38;5.45;;;;;;;-143.90;100.00;65065.84;6213836;23;20005;-77
2023/10/23 06:56:01;;;;;;;26.73;7.05;;;;;;;-143.90;100.00;65065.84;6214134;23;20009;-78
2023/10/23 06:58:26;;;;;;;32.00;7.35;;;;;;;-143.90;100.00;65065.84;6213907;23;19997;-77
2023/10/23 07:00:52;;;;;;;33.33;6.95;;;;;;;-143.90;100.00;65065.84;6212434;23;20038;-77
2023/10/23 07:03:17;;;;;;;21.95;6.32;;;;;;;-143.90;100.00;65065.84;6213995;23;20008;-78
2023/10/23 07:05:43;;;;;;;27.88;6.10;;;;;;;-143.90;100.00;65065.84;6214096;23;20040;-78
2023/10/23 07:08:08;;;;;;;20.92;6.35;;;;;;;-143.90;100.00;65065.84;6187253;23;20000;-78
2023/10/23 07:10:34;;;;;;;29.75;6.50;;;;;;;-143.90;100.00;65065.84;6214061;23;20032;-78
2023/10/23 07:13:00;;;;;;;30.17;6.72;;;;;;;-143.90;100.00;65065.84;6213812;23;20008;-77
2023/10/23 07:15:26;;;;;;;31.23;8.63;;;;;;;-143.90;100.00;65065.84;6212286;23;20139;-77
2023/10/23 07:17:51;;;;;;;21.00;8.68;;;;;;;-143.90;100.00;65065.84;6186974;23;20551;-77
2023/10/23 07:20:17;;;;;;;22.15;9.88;;;;;;;-143.90;100.00;65065.84;6212357;23;20445;-76
2023/10/23 07:22:45;;;;;;;25.63;10.00;;;;;;;-143.90;100.00;65065.84;6213762;23;20014;-77
2023/10/23 07:25:11;;;;;;;21.30;9.38;;;;;;;-143.90;100.00;65065.84;6214059;23;20012;-76
2023/10/23 07:27:38;;;;;;;32.22;13.68;;;;;;;-143.90;100.00;65065.84;6213676;23;20005;-76
2023/10/23 07:30:04;;;;;;;16.48;9.63;;;;;;;-143.90;100.00;65065.84;6212201;23;20005;-76
2023/10/23 07:32:30;;;;;;;15.50;9.38;;;;;;;-143.90;100.00;65065.84;6212063;23;20023;-77
2023/10/23 07:34:55;;;;;;;17.80;10.70;;;;;;;-143.90;100.00;65065.84;6212277;23;20008;-76
2023/10/23 07:37:21;;;;;;;20.95;10.90;;;;;;;-143.90;100.00;65065.84;6213810;23;20012;-77
2023/10/23 07:39:47;;;;;;;16.80;10.88;;;;;;;-143.90;100.00;65065.84;6213730;23;20452;-77
2023/10/23 07:42:14;;;;;;;17.20;11.23;;;;;;;-143.90;100.00;65065.84;6213418;23;20457;-77
2023/10/23 07:44:40;;;;;;;15.95;10.50;;;;;;;-143.90;100.00;65065.84;6187039;23;20004;-77
2023/10/23 07:47:05;;;;;;;14.15;9.80;;;;;;;-143.90;100.00;65065.84;6212053;23;20452;-77
2023/10/23 07:49:30;;;;;;;13.70;9.30;;;;;;;-143.90;100.00;65065.84;6187177;23;20359;-78
2023/10/23 07:51:56;;;;;;;15.05;8.18;;;;;;;-143.90;100.00;65065.84;6213546;23;20381;-78
2023/10/23 07:54:21;;;;;;;10.13;7.60;;;;;;;-143.90;100.00;65065.84;6213569;23;20333;-77
2023/10/23 07:56:46;;;;;;;10.35;7.93;;;;;;;-143.90;100.00;65065.84;6213547;23;20024;-76
2023/10/23 07:59:13;;;;;;;11.95;8.45;;;;;;;-143.90;100.00;65065.84;6211959;23;20180;-77
2023/10/23 08:01:38;;;;;;;11.23;7.97;;;;;;;-143.90;100.00;65065.84;6213383;23;20373;-78
2023/10/23 08:04:04;;;;;;;11.70;7.60;;;;;;;-143.90;100.00;65065.84;6186512;23;20001;-77
2023/10/23 08:06:30;;;;;;;11.25;7.72;;;;;;;-143.90;100.00;65065.84;6186539;23;20083;-77
2023/10/23 08:08:55;;;;;;;13.40;7.30;;;;;;;-143.90;100.00;65065.84;6213235;23;20413;-77
2023/10/23 08:11:20;;;;;;;10.70;7.70;;;;;;;-143.90;100.00;65065.84;6213022;23;20465;-78
2023/10/23 08:13:46;;;;;;;11.15;7.30;;;;;;;-143.90;100.00;65065.84;6186481;23;20045;-77
2023/10/23 08:16:12;;;;;;;10.90;6.60;;;;;;;-143.90;100.00;65065.84;6213108;23;20036;-78
2023/10/23 08:18:37;;;;;;;13.40;7.20;;;;;;;-143.90;100.00;65065.84;6213127;23;20001;-77
2023/10/23 08:21:14;;;;;;;14.45;7.55;;;;;;;-143.90;100.00;65065.84;6211709;23;20341;-77
2023/10/23 08:23:41;;;;;;;14.85;7.28;;;;;;;-143.90;100.00;65065.84;6213338;23;20082;-78
2023/10/23 08:26:06;;;;;;;12.50;7.30;;;;;;;-143.90;100.00;65065.84;6186800;23;20028;-78
2023/10/23 08:28:31;;;;;;;15.43;7.07;;;;;;;-143.90;100.00;65065.84;6213324;23;20055;-78
2023/10/23 08:30:57;;;;;;;10.05;7.28;;;;;;;-143.90;100.00;65065.84;6213225;23;20001;-78
2023/10/23 08:33:22;;;;;;;16.35;7.32;;;;;;;-143.90;100.00;65065.84;6211840;23;20375;-77
2023/10/23 08:35:47;;;;;;;12.23;7.43;;;;;;;-143.90;100.00;65065.84;6212996;23;20031;-78
2023/10/23 08:38:12;;;;;;;11.25;6.32;;;;;;;-143.90;100.00;65065.84;6213369;23;20012;-79
2023/10/23 08:40:38;;;;;;;13.50;7.35;;;;;;;-143.90;100.00;65065.84;6214764;23;20425;-77
2023/10/23 08:43:05;;;;;;;8.98;6.30;;;;;;;-143.90;100.00;65065.84;6214602;23;20008;-77
2023/10/23 08:45:30;;;;;;;9.80;6.45;;;;;;;-143.90;100.00;65065.84;6214437;23;20005;-76
2023/10/23 08:47:57;;;;;;;12.15;6.43;;;;;;;-143.90;100.00;65065.84;6214508;23;20059;-76
2023/10/23 08:50:23;;;;;;;11.38;6.80;;;;;;;-143.90;100.00;65065.84;6214658;23;20378;-76
2023/10/23 08:52:59;;;;;;;15.10;6.40;;;;;;;-143.90;100.00;65065.84;6214634;23;20009;-76
2023/10/23 08:55:28;;;;;;;11.70;6.38;;;;;;;-143.90;100.00;65065.84;6214842;23;20077;-77
2023/10/23 08:57:54;;;;;;;9.68;6.15;;;;;;;-143.90;100.00;65065.84;6214619;23;20008;-76
2023/10/23 09:00:22;;;;;;;12.50;6.15;;;;;;;-143.90;100.00;65065.84;6214868;23;20496;-76
2023/10/23 09:02:48;;;;;;;12.95;6.43;;;;;;;-143.90;100.00;65065.84;6214566;23;20087;-75
2023/10/23 09:05:13;;;;;;;10.70;6.00;;;;;;;-143.90;100.00;65065.84;6215050;23;20009;-76
2023/10/23 09:07:39;;;;;;;11.10;6.13;;;;;;;-143.90;100.00;65065.84;6214451;23;20011;-76
2023/10/23 09:10:05;;;;;;;13.85;6.00;;;;;;;-143.90;100.00;65065.84;6214335;23;20000;-76
2023/10/23 09:12:35;;;;;;;9.98;5.70;;;;;;;-143.90;100.00;65065.84;6214451;23;20015;-76
2023/10/23 09:15:26;;;;;;;15.25;5.88;;;;;;;-143.90;100.00;65065.84;6188801;23;20013;-76
2023/10/23 09:17:53;;;;;;;11.70;5.53;;;;;;;-143.90;100.00;65065.84;6214740;23;20008;-76
2023/10/23 09:20:22;;;;;;;11.48;5.47;;;;;;;-143.90;100.00;65065.84;6215072;23;20082;-76
2023/10/23 09:22:47;;;;;;;12.85;6.65;;;;;;;-143.90;100.00;65065.84;6188169;23;20016;-76
2023/10/23 09:25:23;;;;;;;8.45;5.40;;;;;;;-143.90;100.00;65065.84;6188196;23;20036;-76
2023/10/23 09:27:49;;;;;;;9.57;5.10;;;;;;;-143.90;100.00;65065.84;6214910;23;20004;-76
2023/10/23 09:30:21;;;;;;;11.43;5.60;;;;;;;-143.90;100.00;65065.84;6214141;23;20452;-76
2023/10/23 09:32:54;;;;;;;13.85;6.32;;;;;;;-143.90;100.00;65065.84;6214369;23;20311;-77
2023/10/23 09:35:23;;;;;;;10.93;5.50;;;;;;;-143.90;100.00;65065.84;6189167;23;20377;-77
2023/10/23 09:37:49;;;;;;;11.50;6.25;;;;;;;-143.90;100.00;65065.84;6215937;23;20376;-77
2023/10/23 09:40:16;;;;;;;11.15;5.53;;;;;;;-143.90;100.00;65065.84;6214243;23;20004;-77
2023/10/23 09:42:42;;;;;;;9.85;5.60;;;;;;;-143.90;100.00;65065.84;6213381;23;20020;-76
2023/10/23 09:45:09;;;;;;;14.32;5.75;;;;;;;-143.90;100.00;65065.84;6214418;23;20000;-76
2023/10/23 09:47:37;;;;;;;9.27;5.47;;;;;;;-143.90;100.00;65065.84;6214173;23;20004;-76
2023/10/23 09:50:03;;;;;;;10.98;6.40;;;;;;;-143.90;100.00;65065.84;6186896;23;20047;-77
2023/10/23 09:52:32;;;;;;;12.55;6.35;;;;;;;-143.90;100.00;65065.84;6214131;23;20035;-77
2023/10/23 09:55:21;;;;;;;12.85;6.95;;;;;;;-143.90;100.00;65065.84;6214281;23;20007;-76
2023/10/23 09:57:51;;;;;;;11.93;6.25;;;;;;;-143.90;100.00;65065.84;6187529;23;20031;-75
2023/10/23 10:00:18;;;;;;;16.83;6.70;;;;;;;-143.90;100.00;65065.84;6214277;23;20425;-76
2023/10/23 10:02:54;;;;;;;12.85;6.75;;;;;;;-143.90;100.00;65065.84;6214216;23;20031;-75
2023/10/23 10:05:39;;;;;;;16.20;7.20;;;;;;;-143.90;100.00;65065.84;6212712;23;20009;-76
2023/10/23 10:08:11;;;;;;;11.80;6.07;;;;;;;-143.90;100.00;65065.84;6197250;23;20009;-77
2023/10/23 10:10:37;;;;;;;13.00;7.93;;;;;;;-143.90;100.00;65065.84;6187936;23;20032;-76
2023/10/23 10:13:03;;;;;;;14.60;6.88;;;;;;;-143.90;100.00;65065.84;6214383;23;20005;-76
2023/10/23 10:15:31;;;;;;;14.30;6.88;;;;;;;-143.90;100.00;65065.84;6212663;23;20044;-76
2023/10/23 10:17:56;;;;;;;15.57;6.75;;;;;;;-143.90;100.00;65065.84;6187510;23;20058;-76
2023/10/23 10:20:23;;;;;;;12.98;6.63;;;;;;;-143.90;100.00;65065.84;6213217;23;20095;-77
2023/10/23 10:23:10;;;;;;;10.95;6.35;;;;;;;-143.90;100.00;65065.84;6212982;23;20012;-76
2023/10/23 10:25:37;;;;;;;12.98;6.55;;;;;;;-143.90;100.00;65065.84;6214993;23;20127;-76
2023/10/23 10:28:05;;;;;;;12.63;5.95;;;;;;;-143.90;100.00;65065.84;6214427;23;20334;-76
2023/10/23 10:30:38;;;;;;;13.63;6.28;;;;;;;-143.90;100.00;65065.84;6187503;23;20016;-77
2023/10/23 10:33:07;;;;;;;12.27;5.68;;;;;;;-143.90;100.00;65065.84;6214059;23;20019;-76
2023/10/23 10:35:34;;;;;;;12.65;6.13;;;;;;;-143.90;100.00;65065.84;6214261;23;20438;-76
2023/10/23 10:38:00;;;;;;;14.02;6.70;;;;;;;-143.90;100.00;65065.84;6187882;23;20008;-77
2023/10/23 10:40:25;;;;;;;16.25;5.93;;;;;;;-143.90;100.00;65065.84;6214060;23;20373;-76
2023/10/23 10:42:51;;;;;;;8.75;5.32;;;;;;;-143.90;100.00;65065.84;6214075;23;20091;-76
2023/10/23 10:45:17;;;;;;;12.68;5.95;;;;;;;-143.90;100.00;65065.84;6212473;23;20119;-77
2023/10/23 10:47:54;;;;;;;17.73;7.30;;;;;;;-143.90;100.00;65065.84;6214033;23;20000;-76
2023/10/23 10:50:33;;;;;;;12.30;6.15;;;;;;;-143.90;100.00;65065.84;6214396;23;20053;-76
2023/10/23 10:53:06;;;;;;;13.93;5.82;;;;;;;-143.90;100.00;65065.84;6214159;23;20008;-77
2023/10/23 10:55:33;;;;;;;13.30;5.97;;;;;;;-143.90;100.00;65065.84;6213771;23;20377;-77
2023/10/23 10:57:59;;;;;;;14.30;6.43;;;;;;;-143.90;100.00;65065.84;6215255;23;20011;-78